New York, New York
Traffic Map
Current Weather Conditions
New York, New York
Clear
Clear
76°
Feels Like: 76°
Wind Chill: 76° Ceiling: Unl
Heat Index: 76° Visibility: 7mi
Dew Point: 70° Wind: 0mph
Humidity: 82% Direction: ° ()
Pressure: 29.96in Gusts: 0mph
Raw Report DataKNYC 300651Z AUTO 00000KT 7SM CLR 24/21 A2996 RMK AO2 SLP135 T02440211 $
Traffic Incident Summary
Active as of:
Severity:
Category:
InformationThere was an issue retrieving the traffic information for this location. Please try a different location or try again shortly.
Advertisements
Track Severe Weather on mobile